sensor_id;sensor_type;location;lat;lon;timestamp;pressure;altitude;pressure_sealevel;temperature;humidity
80749;BME280;70145;53.746;9.970;2023-11-19T00:01:48;100631.66;;;3.53;65.74
80749;BME280;70145;53.746;9.970;2023-11-19T00:04:14;100629.75;;;3.55;65.03
80749;BME280;70145;53.746;9.970;2023-11-19T00:06:39;100626.16;;;3.56;65.86
80749;BME280;70145;53.746;9.970;2023-11-19T00:09:04;100619.63;;;3.46;66.01
80749;BME280;70145;53.746;9.970;2023-11-19T00:11:30;100606.59;;;3.41;66.71
80749;BME280;70145;53.746;9.970;2023-11-19T00:13:55;100600.66;;;3.52;65.21
80749;BME280;70145;53.746;9.970;2023-11-19T00:16:20;100597.03;;;3.53;65.67
80749;BME280;70145;53.746;9.970;2023-11-19T00:18:45;100583.53;;;3.56;65.80
80749;BME280;70145;53.746;9.970;2023-11-19T00:21:11;100575.03;;;3.65;65.73
80749;BME280;70145;53.746;9.970;2023-11-19T00:23:36;100577.28;;;3.57;65.85
80749;BME280;70145;53.746;9.970;2023-11-19T00:26:02;100564.38;;;3.65;65.85
80749;BME280;70145;53.746;9.970;2023-11-19T00:28:27;100553.72;;;3.65;65.12
80749;BME280;70145;53.746;9.970;2023-11-19T00:30:53;100541.34;;;3.64;65.80
80749;BME280;70145;53.746;9.970;2023-11-19T00:33:19;100539.63;;;3.63;65.66
80749;BME280;70145;53.746;9.970;2023-11-19T00:35:44;100527.97;;;3.50;66.12
80749;BME280;70145;53.746;9.970;2023-11-19T00:38:09;100511.00;;;3.52;66.46
80749;BME280;70145;53.746;9.970;2023-11-19T00:40:34;100509.16;;;3.53;66.41
80749;BME280;70145;53.746;9.970;2023-11-19T00:43:00;100506.06;;;3.60;65.64
80749;BME280;70145;53.746;9.970;2023-11-19T00:45:25;100496.34;;;3.59;65.72
80749;BME280;70145;53.746;9.970;2023-11-19T00:47:50;100492.66;;;3.62;65.54
80749;BME280;70145;53.746;9.970;2023-11-19T00:50:16;100486.19;;;3.66;65.57
80749;BME280;70145;53.746;9.970;2023-11-19T00:52:41;100477.16;;;3.68;65.17
80749;BME280;70145;53.746;9.970;2023-11-19T00:55:06;100475.53;;;3.66;66.08
80749;BME280;70145;53.746;9.970;2023-11-19T00:57:32;100464.13;;;3.64;65.55
80749;BME280;70145;53.746;9.970;2023-11-19T00:59:58;100468.50;;;3.65;65.78
80749;BME280;70145;53.746;9.970;2023-11-19T01:02:24;100462.97;;;3.68;66.43
80749;BME280;70145;53.746;9.970;2023-11-19T01:04:49;100462.47;;;3.61;65.82
80749;BME280;70145;53.746;9.970;2023-11-19T01:07:15;100445.75;;;3.73;65.85
80749;BME280;70145;53.746;9.970;2023-11-19T01:09:42;100439.97;;;3.67;66.51
80749;BME280;70145;53.746;9.970;2023-11-19T01:12:07;100429.97;;;3.70;66.60
80749;BME280;70145;53.746;9.970;2023-11-19T01:14:33;100426.94;;;3.76;65.87
80749;BME280;70145;53.746;9.970;2023-11-19T01:16:58;100426.84;;;3.78;66.06
80749;BME280;70145;53.746;9.970;2023-11-19T01:19:23;100422.66;;;3.74;66.22
80749;BME280;70145;53.746;9.970;2023-11-19T01:21:53;100410.78;;;3.79;66.09
80749;BME280;70145;53.746;9.970;2023-11-19T01:24:18;100400.03;;;3.81;66.27
80749;BME280;70145;53.746;9.970;2023-11-19T01:26:44;100385.94;;;3.79;65.67
80749;BME280;70145;53.746;9.970;2023-11-19T01:29:15;100384.22;;;3.78;65.71
80749;BME280;70145;53.746;9.970;2023-11-19T01:31:45;100392.03;;;3.67;66.70
80749;BME280;70145;53.746;9.970;2023-11-19T01:34:16;100376.06;;;3.67;66.59
80749;BME280;70145;53.746;9.970;2023-11-19T01:36:41;100371.75;;;3.64;66.15
80749;BME280;70145;53.746;9.970;2023-11-19T01:39:07;100364.53;;;3.66;66.61
80749;BME280;70145;53.746;9.970;2023-11-19T01:41:35;100357.97;;;3.72;66.36
80749;BME280;70145;53.746;9.970;2023-11-19T01:44:01;100345.97;;;3.79;66.03
80749;BME280;70145;53.746;9.970;2023-11-19T01:46:27;100336.75;;;3.84;64.94
80749;BME280;70145;53.746;9.970;2023-11-19T01:48:53;100333.34;;;3.82;66.16
80749;BME280;70145;53.746;9.970;2023-11-19T01:51:19;100330.28;;;3.88;65.32
80749;BME280;70145;53.746;9.970;2023-11-19T01:53:46;100331.06;;;3.76;66.72
80749;BME280;70145;53.746;9.970;2023-11-19T01:56:13;100325.25;;;3.84;66.44
80749;BME280;70145;53.746;9.970;2023-11-19T01:58:40;100318.22;;;3.83;66.09
80749;BME280;70145;53.746;9.970;2023-11-19T02:01:07;100326.50;;;3.78;66.49
80749;BME280;70145;53.746;9.970;2023-11-19T02:03:32;100308.69;;;3.79;66.31
80749;BME280;70145;53.746;9.970;2023-11-19T02:05:59;100316.88;;;3.76;66.21
80749;BME280;70145;53.746;9.970;2023-11-19T02:08:25;100298.03;;;3.79;66.62
80749;BME280;70145;53.746;9.970;2023-11-19T02:10:51;100297.19;;;3.78;66.46
80749;BME280;70145;53.746;9.970;2023-11-19T02:13:17;100272.16;;;3.81;66.35
80749;BME280;70145;53.746;9.970;2023-11-19T02:15:43;100265.53;;;3.74;66.83
80749;BME280;70145;53.746;9.970;2023-11-19T02:18:23;100264.38;;;3.78;66.55
80749;BME280;70145;53.746;9.970;2023-11-19T02:20:50;100260.63;;;3.80;66.64
80749;BME280;70145;53.746;9.970;2023-11-19T02:23:16;100254.28;;;3.83;66.38
80749;BME280;70145;53.746;9.970;2023-11-19T02:25:43;100249.16;;;3.80;66.07
80749;BME280;70145;53.746;9.970;2023-11-19T02:28:11;100248.75;;;3.86;66.40
80749;BME280;70145;53.746;9.970;2023-11-19T02:30:37;100246.50;;;3.80;66.35
80749;BME280;70145;53.746;9.970;2023-11-19T02:33:03;100241.59;;;3.86;66.09
80749;BME280;70145;53.746;9.970;2023-11-19T02:35:31;100235.97;;;3.91;66.33
80749;BME280;70145;53.746;9.970;2023-11-19T02:37:58;100228.75;;;3.93;66.44
80749;BME280;70145;53.746;9.970;2023-11-19T02:40:24;100217.22;;;3.92;66.28
80749;BME280;70145;53.746;9.970;2023-11-19T02:42:50;100215.53;;;3.91;65.63
80749;BME280;70145;53.746;9.970;2023-11-19T02:45:16;100207.97;;;3.98;66.02
80749;BME280;70145;53.746;9.970;2023-11-19T02:47:42;100196.16;;;4.02;65.65
80749;BME280;70145;53.746;9.970;2023-11-19T02:50:09;100195.94;;;4.05;65.71
80749;BME280;70145;53.746;9.970;2023-11-19T02:52:39;100186.00;;;4.08;64.87
80749;BME280;70145;53.746;9.970;2023-11-19T02:55:04;100182.63;;;4.05;65.84
80749;BME280;70145;53.746;9.970;2023-11-19T02:57:34;100175.34;;;4.08;66.13
80749;BME280;70145;53.746;9.970;2023-11-19T02:59:59;100172.16;;;4.02;66.12
80749;BME280;70145;53.746;9.970;2023-11-19T03:02:25;100160.38;;;4.06;66.68
80749;BME280;70145;53.746;9.970;2023-11-19T03:04:59;100151.63;;;4.04;66.11
80749;BME280;70145;53.746;9.970;2023-11-19T03:07:24;100145.25;;;4.06;66.17
80749;BME280;70145;53.746;9.970;2023-11-19T03:09:49;100139.72;;;4.09;65.88
80749;BME280;70145;53.746;9.970;2023-11-19T03:12:15;100138.53;;;4.13;65.69
80749;BME280;70145;53.746;9.970;2023-11-19T03:14:40;100135.69;;;4.16;65.75
80749;BME280;70145;53.746;9.970;2023-11-19T03:17:05;100133.00;;;4.16;66.55
80749;BME280;70145;53.746;9.970;2023-11-19T03:19:31;100122.44;;;4.15;66.33
80749;BME280;70145;53.746;9.970;2023-11-19T03:21:56;100115.97;;;4.19;65.59
80749;BME280;70145;53.746;9.970;2023-11-19T03:24:22;100113.53;;;4.16;66.45
80749;BME280;70145;53.746;9.970;2023-11-19T03:26:50;100104.13;;;4.10;66.15
80749;BME280;70145;53.746;9.970;2023-11-19T03:29:15;100104.75;;;4.14;65.90
80749;BME280;70145;53.746;9.970;2023-11-19T03:31:44;100097.44;;;4.17;66.05
80749;BME280;70145;53.746;9.970;2023-11-19T03:34:10;100093.69;;;4.20;66.28
80749;BME280;70145;53.746;9.970;2023-11-19T03:36:35;100100.00;;;4.19;66.60
80749;BME280;70145;53.746;9.970;2023-11-19T03:39:00;100092.94;;;4.18;66.30
80749;BME280;70145;53.746;9.970;2023-11-19T03:41:26;100085.28;;;4.26;66.23
80749;BME280;70145;53.746;9.970;2023-11-19T03:43:51;100078.25;;;4.25;65.98
80749;BME280;70145;53.746;9.970;2023-11-19T03:46:18;100089.22;;;4.20;66.54
80749;BME280;70145;53.746;9.970;2023-11-19T03:48:43;100079.19;;;4.24;66.41
80749;BME280;70145;53.746;9.970;2023-11-19T03:51:08;100089.44;;;4.30;66.15
80749;BME280;70145;53.746;9.970;2023-11-19T03:53:34;100083.78;;;4.34;65.60
80749;BME280;70145;53.746;9.970;2023-11-19T03:55:59;100082.81;;;4.35;66.52
80749;BME280;70145;53.746;9.970;2023-11-19T03:58:24;100064.91;;;4.37;65.94
80749;BME280;70145;53.746;9.970;2023-11-19T04:00:50;100068.19;;;4.41;66.22
80749;BME280;70145;53.746;9.970;2023-11-19T04:03:15;100069.16;;;4.40;66.63
80749;BME280;70145;53.746;9.970;2023-11-19T04:05:40;100083.06;;;4.45;66.44
80749;BME280;70145;53.746;9.970;2023-11-19T04:08:05;100079.97;;;4.51;65.71
80749;BME280;70145;53.746;9.970;2023-11-19T04:10:31;100066.53;;;4.52;66.10
80749;BME280;70145;53.746;9.970;2023-11-19T04:12:56;100044.00;;;4.56;65.96
80749;BME280;70145;53.746;9.970;2023-11-19T04:15:21;100038.66;;;4.56;66.28
80749;BME280;70145;53.746;9.970;2023-11-19T04:17:47;100049.13;;;4.59;65.77
80749;BME280;70145;53.746;9.970;2023-11-19T04:20:12;100057.03;;;4.61;66.50
80749;BME280;70145;53.746;9.970;2023-11-19T04:22:38;100046.56;;;4.58;66.78
80749;BME280;70145;53.746;9.970;2023-11-19T04:25:04;100032.69;;;4.53;67.01
80749;BME280;70145;53.746;9.970;2023-11-19T04:27:29;100039.41;;;4.58;67.87
80749;BME280;70145;53.746;9.970;2023-11-19T04:29:55;100024.69;;;4.65;67.19
80749;BME280;70145;53.746;9.970;2023-11-19T04:32:20;100024.69;;;4.65;67.53
80749;BME280;70145;53.746;9.970;2023-11-19T04:34:46;100020.94;;;4.68;67.42
80749;BME280;70145;53.746;9.970;2023-11-19T04:37:11;100009.72;;;4.75;67.75
80749;BME280;70145;53.746;9.970;2023-11-19T04:39:36;100013.44;;;4.73;68.05
80749;BME280;70145;53.746;9.970;2023-11-19T04:42:02;100010.34;;;4.79;67.70
80749;BME280;70145;53.746;9.970;2023-11-19T04:44:27;100009.78;;;4.86;67.71
80749;BME280;70145;53.746;9.970;2023-11-19T04:46:54;100012.34;;;4.88;67.64
80749;BME280;70145;53.746;9.970;2023-11-19T04:49:19;100013.81;;;4.92;67.71
80749;BME280;70145;53.746;9.970;2023-11-19T04:51:45;100001.84;;;4.97;67.60
80749;BME280;70145;53.746;9.970;2023-11-19T04:54:14;99988.41;;;4.99;67.80
80749;BME280;70145;53.746;9.970;2023-11-19T04:56:40;100009.53;;;5.02;67.23
80749;BME280;70145;53.746;9.970;2023-11-19T04:59:05;99997.53;;;5.07;67.72
80749;BME280;70145;53.746;9.970;2023-11-19T05:01:32;100004.38;;;5.11;67.17
80749;BME280;70145;53.746;9.970;2023-11-19T05:03:57;99988.03;;;5.16;66.87
80749;BME280;70145;53.746;9.970;2023-11-19T05:06:30;99984.38;;;5.17;67.18
80749;BME280;70145;53.746;9.970;2023-11-19T05:08:59;99979.69;;;5.20;67.39
80749;BME280;70145;53.746;9.970;2023-11-19T05:11:26;99983.41;;;5.18;67.86
80749;BME280;70145;53.746;9.970;2023-11-19T05:13:53;99990.22;;;5.22;67.34
80749;BME280;70145;53.746;9.970;2023-11-19T05:16:19;99983.19;;;5.21;67.43
80749;BME280;70145;53.746;9.970;2023-11-19T05:18:45;99974.09;;;5.23;67.46
80749;BME280;70145;53.746;9.970;2023-11-19T05:21:11;99975.47;;;5.29;67.37
80749;BME280;70145;53.746;9.970;2023-11-19T05:23:36;99973.41;;;5.32;66.96
80749;BME280;70145;53.746;9.970;2023-11-19T05:26:02;99971.59;;;5.33;67.33
80749;BME280;70145;53.746;9.970;2023-11-19T05:28:27;99965.91;;;5.37;67.54
80749;BME280;70145;53.746;9.970;2023-11-19T05:30:53;99951.47;;;5.40;67.41
80749;BME280;70145;53.746;9.970;2023-11-19T05:33:18;99947.81;;;5.41;67.20
80749;BME280;70145;53.746;9.970;2023-11-19T05:35:43;99959.13;;;5.44;67.68
80749;BME280;70145;53.746;9.970;2023-11-19T05:38:08;99959.75;;;5.48;67.17
80749;BME280;70145;53.746;9.970;2023-11-19T05:40:35;99963.91;;;5.52;67.45
80749;BME280;70145;53.746;9.970;2023-11-19T05:43:00;99958.44;;;5.53;67.68
80749;BME280;70145;53.746;9.970;2023-11-19T05:45:26;99951.16;;;5.55;67.73
80749;BME280;70145;53.746;9.970;2023-11-19T05:47:51;99964.16;;;5.60;67.36
80749;BME280;70145;53.746;9.970;2023-11-19T05:50:18;99956.81;;;5.64;67.47
80749;BME280;70145;53.746;9.970;2023-11-19T05:52:43;99960.94;;;5.68;67.73
80749;BME280;70145;53.746;9.970;2023-11-19T05:55:09;99941.88;;;5.72;67.42
80749;BME280;70145;53.746;9.970;2023-11-19T05:57:36;99948.69;;;5.76;67.66
80749;BME280;70145;53.746;9.970;2023-11-19T06:00:01;99952.69;;;5.82;67.69
80749;BME280;70145;53.746;9.970;2023-11-19T06:02:28;99943.50;;;5.86;67.43
80749;BME280;70145;53.746;9.970;2023-11-19T06:04:53;99946.06;;;5.87;67.75
80749;BME280;70145;53.746;9.970;2023-11-19T06:07:19;99951.88;;;5.92;67.66
80749;BME280;70145;53.746;9.970;2023-11-19T06:09:45;99943.63;;;5.95;67.83
80749;BME280;70145;53.746;9.970;2023-11-19T06:12:10;99946.81;;;6.00;67.57
80749;BME280;70145;53.746;9.970;2023-11-19T06:14:35;99943.84;;;6.03;67.75
80749;BME280;70145;53.746;9.970;2023-11-19T06:17:01;99941.81;;;6.07;67.51
80749;BME280;70145;53.746;9.970;2023-11-19T06:19:26;99948.63;;;6.11;67.24
80749;BME280;70145;53.746;9.970;2023-11-19T06:21:52;99947.44;;;6.15;67.63
80749;BME280;70145;53.746;9.970;2023-11-19T06:24:17;99947.16;;;6.18;67.59
80749;BME280;70145;53.746;9.970;2023-11-19T06:26:42;99952.13;;;6.22;67.96
80749;BME280;70145;53.746;9.970;2023-11-19T06:29:08;99950.09;;;6.26;67.55
80749;BME280;70145;53.746;9.970;2023-11-19T06:31:33;99937.47;;;6.28;67.16
80749;BME280;70145;53.746;9.970;2023-11-19T06:33:58;99945.94;;;6.33;67.67
80749;BME280;70145;53.746;9.970;2023-11-19T06:36:24;99935.00;;;6.36;67.68
80749;BME280;70145;53.746;9.970;2023-11-19T06:38:49;99936.59;;;6.38;67.98
80749;BME280;70145;53.746;9.970;2023-11-19T06:41:15;99929.06;;;6.43;68.09
80749;BME280;70145;53.746;9.970;2023-11-19T06:43:40;99928.69;;;6.48;68.25
80749;BME280;70145;53.746;9.970;2023-11-19T06:46:05;99933.56;;;6.54;68.41
80749;BME280;70145;53.746;9.970;2023-11-19T06:48:34;99941.19;;;6.58;68.91
80749;BME280;70145;53.746;9.970;2023-11-19T06:51:00;99939.72;;;6.65;69.15
80749;BME280;70145;53.746;9.970;2023-11-19T06:53:25;99939.22;;;6.71;69.29
80749;BME280;70145;53.746;9.970;2023-11-19T06:55:53;99935.09;;;6.78;69.55
80749;BME280;70145;53.746;9.970;2023-11-19T06:58:18;99936.16;;;6.87;69.42
80749;BME280;70145;53.746;9.970;2023-11-19T07:00:43;99944.53;;;6.93;69.64
80749;BME280;70145;53.746;9.970;2023-11-19T07:03:09;99942.25;;;7.00;69.60
80749;BME280;70145;53.746;9.970;2023-11-19T07:05:38;99941.88;;;7.04;69.68
80749;BME280;70145;53.746;9.970;2023-11-19T07:08:04;99949.66;;;7.07;70.69
80749;BME280;70145;53.746;9.970;2023-11-19T07:10:29;99950.09;;;7.12;70.43
80749;BME280;70145;53.746;9.970;2023-11-19T07:12:56;99946.91;;;7.18;70.90
80749;BME280;70145;53.746;9.970;2023-11-19T07:15:21;99951.78;;;7.24;70.91
80749;BME280;70145;53.746;9.970;2023-11-19T07:17:46;99957.44;;;7.31;70.96
80749;BME280;70145;53.746;9.970;2023-11-19T07:20:13;99962.69;;;7.32;71.81
80749;BME280;70145;53.746;9.970;2023-11-19T07:22:43;99954.25;;;7.37;72.02
80749;BME280;70145;53.746;9.970;2023-11-19T07:25:11;99955.31;;;7.45;71.42
80749;BME280;70145;53.746;9.970;2023-11-19T07:27:37;99958.47;;;7.50;71.61
80749;BME280;70145;53.746;9.970;2023-11-19T07:30:04;99957.72;;;7.59;71.27
80749;BME280;70145;53.746;9.970;2023-11-19T07:32:30;99959.84;;;7.65;71.11
80749;BME280;70145;53.746;9.970;2023-11-19T07:34:55;99950.84;;;7.66;71.70
80749;BME280;70145;53.746;9.970;2023-11-19T07:37:21;99968.97;;;7.74;71.41
80749;BME280;70145;53.746;9.970;2023-11-19T07:39:47;99959.66;;;7.78;71.54
80749;BME280;70145;53.746;9.970;2023-11-19T07:42:12;99968.16;;;7.83;71.47
80749;BME280;70145;53.746;9.970;2023-11-19T07:44:38;99966.81;;;7.89;71.27
80749;BME280;70145;53.746;9.970;2023-11-19T07:47:03;99976.78;;;7.87;71.74
80749;BME280;70145;53.746;9.970;2023-11-19T07:49:28;99968.81;;;7.96;71.33
80749;BME280;70145;53.746;9.970;2023-11-19T07:51:54;99974.91;;;7.98;71.19
80749;BME280;70145;53.746;9.970;2023-11-19T07:54:19;99987.19;;;8.01;71.83
80749;BME280;70145;53.746;9.970;2023-11-19T07:56:46;99974.50;;;8.03;71.74
80749;BME280;70145;53.746;9.970;2023-11-19T07:59:11;99974.69;;;8.11;71.77
80749;BME280;70145;53.746;9.970;2023-11-19T08:01:37;99986.13;;;8.13;71.88
80749;BME280;70145;53.746;9.970;2023-11-19T08:04:02;99990.63;;;8.12;71.94
80749;BME280;70145;53.746;9.970;2023-11-19T08:06:28;99985.63;;;8.19;72.07
80749;BME280;70145;53.746;9.970;2023-11-19T08:08:53;99986.81;;;8.26;71.13
80749;BME280;70145;53.746;9.970;2023-11-19T08:11:18;99993.59;;;8.30;71.13
80749;BME280;70145;53.746;9.970;2023-11-19T08:13:47;99986.97;;;8.34;71.19
80749;BME280;70145;53.746;9.970;2023-11-19T08:16:12;99989.66;;;8.34;71.33
80749;BME280;70145;53.746;9.970;2023-11-19T08:18:37;99994.75;;;8.37;70.98
80749;BME280;70145;53.746;9.970;2023-11-19T08:21:03;99998.91;;;8.41;70.84
80749;BME280;70145;53.746;9.970;2023-11-19T08:23:30;99994.97;;;8.45;70.94
80749;BME280;70145;53.746;9.970;2023-11-19T08:25:55;99995.66;;;8.47;70.75
80749;BME280;70145;53.746;9.970;2023-11-19T08:28:20;100003.16;;;8.43;71.37
80749;BME280;70145;53.746;9.970;2023-11-19T08:30:46;100006.69;;;8.44;71.07
80749;BME280;70145;53.746;9.970;2023-11-19T08:33:11;100007.13;;;8.49;70.89
80749;BME280;70145;53.746;9.970;2023-11-19T08:35:37;100001.34;;;8.53;70.53
80749;BME280;70145;53.746;9.970;2023-11-19T08:38:02;100006.31;;;8.58;70.91
80749;BME280;70145;53.746;9.970;2023-11-19T08:40:28;100003.19;;;8.53;71.04
80749;BME280;70145;53.746;9.970;2023-11-19T08:42:55;100013.97;;;8.62;70.59
80749;BME280;70145;53.746;9.970;2023-11-19T08:45:21;100011.84;;;8.66;70.36
80749;BME280;70145;53.746;9.970;2023-11-19T08:47:46;100010.88;;;8.67;70.00
80749;BME280;70145;53.746;9.970;2023-11-19T08:50:12;100008.19;;;8.67;70.39
80749;BME280;70145;53.746;9.970;2023-11-19T08:52:37;100004.38;;;8.69;69.87
80749;BME280;70145;53.746;9.970;2023-11-19T08:55:03;100013.00;;;8.73;69.98
80749;BME280;70145;53.746;9.970;2023-11-19T08:57:30;100016.81;;;8.70;70.45
80749;BME280;70145;53.746;9.970;2023-11-19T08:59:56;99998.47;;;8.75;70.04
80749;BME280;70145;53.746;9.970;2023-11-19T09:02:21;100006.41;;;8.77;69.82
80749;BME280;70145;53.746;9.970;2023-11-19T09:04:46;100002.59;;;8.79;69.96
80749;BME280;70145;53.746;9.970;2023-11-19T09:07:11;100013.91;;;8.83;69.71
80749;BME280;70145;53.746;9.970;2023-11-19T09:09:37;100010.94;;;8.86;69.76
80749;BME280;70145;53.746;9.970;2023-11-19T09:12:03;100019.97;;;8.75;69.83
80749;BME280;70145;53.746;9.970;2023-11-19T09:14:29;100012.06;;;8.83;69.85
80749;BME280;70145;53.746;9.970;2023-11-19T09:16:55;100025.88;;;8.79;69.85
80749;BME280;70145;53.746;9.970;2023-11-19T09:19:21;100028.03;;;8.85;69.50
80749;BME280;70145;53.746;9.970;2023-11-19T09:21:46;100028.03;;;8.85;69.83
80749;BME280;70145;53.746;9.970;2023-11-19T09:24:13;100024.09;;;8.89;69.60
80749;BME280;70145;53.746;9.970;2023-11-19T09:26:38;100028.50;;;8.90;69.24
80749;BME280;70145;53.746;9.970;2023-11-19T09:29:06;100037.66;;;8.87;69.80
80749;BME280;70145;53.746;9.970;2023-11-19T09:31:32;100023.00;;;8.91;69.29
80749;BME280;70145;53.746;9.970;2023-11-19T09:33:58;100036.97;;;8.95;69.20
80749;BME280;70145;53.746;9.970;2023-11-19T09:36:23;100028.91;;;8.95;69.33
80749;BME280;70145;53.746;9.970;2023-11-19T09:38:48;100028.09;;;8.94;69.12
80749;BME280;70145;53.746;9.970;2023-11-19T09:41:14;100037.44;;;9.00;68.79
80749;BME280;70145;53.746;9.970;2023-11-19T09:43:40;100033.75;;;9.01;68.95
80749;BME280;70145;53.746;9.970;2023-11-19T09:46:07;100033.19;;;8.97;69.21
80749;BME280;70145;53.746;9.970;2023-11-19T09:48:36;100034.88;;;8.98;69.18
80749;BME280;70145;53.746;9.970;2023-11-19T09:51:06;100039.72;;;9.04;68.89
80749;BME280;70145;53.746;9.970;2023-11-19T09:53:32;100034.19;;;9.06;68.67
80749;BME280;70145;53.746;9.970;2023-11-19T09:56:00;100037.72;;;9.06;68.94
80749;BME280;70145;53.746;9.970;2023-11-19T09:58:25;100037.19;;;9.12;68.45
80749;BME280;70145;53.746;9.970;2023-11-19T10:00:51;100037.31;;;9.11;68.29
80749;BME280;70145;53.746;9.970;2023-11-19T10:03:17;100036.50;;;9.20;68.20
80749;BME280;70145;53.746;9.970;2023-11-19T10:05:43;100041.47;;;9.24;68.54
80749;BME280;70145;53.746;9.970;2023-11-19T10:08:08;100044.00;;;9.26;68.34
80749;BME280;70145;53.746;9.970;2023-11-19T10:10:34;100040.91;;;9.30;67.96
80749;BME280;70145;53.746;9.970;2023-11-19T10:13:00;100037.50;;;9.28;67.91
80749;BME280;70145;53.746;9.970;2023-11-19T10:15:26;100050.53;;;9.33;68.04
80749;BME280;70145;53.746;9.970;2023-11-19T10:17:55;100034.66;;;9.30;67.83
80749;BME280;70145;53.746;9.970;2023-11-19T10:20:20;100040.06;;;9.30;68.14
80749;BME280;70145;53.746;9.970;2023-11-19T10:22:45;100032.53;;;9.24;67.83
80749;BME280;70145;53.746;9.970;2023-11-19T10:25:22;100035.66;;;9.29;67.84
80749;BME280;70145;53.746;9.970;2023-11-19T10:27:48;100040.38;;;9.36;67.63
80749;BME280;70145;53.746;9.970;2023-11-19T10:30:17;100043.50;;;9.41;67.81
80749;BME280;70145;53.746;9.970;2023-11-19T10:32:43;100032.31;;;9.46;67.60
80749;BME280;70145;53.746;9.970;2023-11-19T10:35:08;100043.81;;;9.48;67.47
80749;BME280;70145;53.746;9.970;2023-11-19T10:37:37;100052.00;;;9.46;67.37
80749;BME280;70145;53.746;9.970;2023-11-19T10:40:02;100051.59;;;9.51;67.33
80749;BME280;70145;53.746;9.970;2023-11-19T10:42:30;100048.31;;;9.47;66.97
80749;BME280;70145;53.746;9.970;2023-11-19T10:44:55;100052.00;;;9.56;67.11
80749;BME280;70145;53.746;9.970;2023-11-19T10:47:23;100056.66;;;9.54;66.56
80749;BME280;70145;53.746;9.970;2023-11-19T10:49:48;100049.31;;;9.56;66.75
80749;BME280;70145;53.746;9.970;2023-11-19T10:52:18;100048.03;;;9.60;66.62
80749;BME280;70145;53.746;9.970;2023-11-19T10:54:51;100059.06;;;9.57;66.58
80749;BME280;70145;53.746;9.970;2023-11-19T10:57:24;100054.13;;;9.62;66.58
80749;BME280;70145;53.746;9.970;2023-11-19T10:59:55;100052.72;;;9.58;66.64
80749;BME280;70145;53.746;9.970;2023-11-19T11:02:27;100060.25;;;9.64;66.23
80749;BME280;70145;53.746;9.970;2023-11-19T11:04:54;100049.16;;;9.67;66.39
80749;BME280;70145;53.746;9.970;2023-11-19T11:07:21;100052.84;;;9.66;66.36
80749;BME280;70145;53.746;9.970;2023-11-19T11:09:51;100051.16;;;9.65;66.24
80749;BME280;70145;53.746;9.970;2023-11-19T11:12:17;100053.44;;;9.69;66.26
80749;BME280;70145;53.746;9.970;2023-11-19T11:14:47;100059.94;;;9.67;66.07
80749;BME280;70145;53.746;9.970;2023-11-19T11:17:17;100055.56;;;9.66;66.42
80749;BME280;70145;53.746;9.970;2023-11-19T11:19:42;100060.25;;;9.64;66.64
80749;BME280;70145;53.746;9.970;2023-11-19T11:22:09;100058.38;;;9.64;66.31
80749;BME280;70145;53.746;9.970;2023-11-19T11:24:40;100051.16;;;9.65;66.42
80749;BME280;70145;53.746;9.970;2023-11-19T11:27:42;100057.09;;;9.59;66.52
80749;BME280;70145;53.746;9.970;2023-11-19T11:30:43;100065.31;;;9.67;66.24
80749;BME280;70145;53.746;9.970;2023-11-19T11:33:38;100062.06;;;9.63;66.13
80749;BME280;70145;53.746;9.970;2023-11-19T11:36:20;100067.03;;;9.68;66.41
80749;BME280;70145;53.746;9.970;2023-11-19T11:38:48;100059.38;;;9.73;66.26
80749;BME280;70145;53.746;9.970;2023-11-19T11:41:22;100060.09;;;9.75;66.24
80749;BME280;70145;53.746;9.970;2023-11-19T11:43:49;100069.16;;;9.74;66.04
80749;BME280;70145;53.746;9.970;2023-11-19T11:49:03;100075.09;;;9.68;66.64
80749;BME280;70145;53.746;9.970;2023-11-19T11:57:13;100070.84;;;9.75;66.05
80749;BME280;70145;53.746;9.970;2023-11-19T12:02:22;100072.97;;;9.81;66.01
80749;BME280;70145;53.746;9.970;2023-11-19T12:04:49;100060.22;;;9.83;66.17
80749;BME280;70145;53.746;9.970;2023-11-19T12:07:22;100061.09;;;9.83;65.91
80749;BME280;70145;53.746;9.970;2023-11-19T12:10:08;100061.81;;;9.85;65.79
80749;BME280;70145;53.746;9.970;2023-11-19T12:12:36;100065.31;;;9.86;65.71
80749;BME280;70145;53.746;9.970;2023-11-19T12:15:08;100058.25;;;9.85;65.85
80749;BME280;70145;53.746;9.970;2023-11-19T12:17:38;100061.91;;;9.74;66.35
80749;BME280;70145;53.746;9.970;2023-11-19T12:20:06;100054.84;;;9.83;66.04
80749;BME280;70145;53.746;9.970;2023-11-19T12:22:40;100056.84;;;9.81;66.08
80749;BME280;70145;53.746;9.970;2023-11-19T12:25:07;100066.03;;;9.88;65.80
80749;BME280;70145;53.746;9.970;2023-11-19T12:27:34;100064.06;;;9.90;65.78
80749;BME280;70145;53.746;9.970;2023-11-19T12:30:00;100056.53;;;9.93;65.70
80749;BME280;70145;53.746;9.970;2023-11-19T12:32:25;100066.47;;;9.93;65.85
80749;BME280;70145;53.746;9.970;2023-11-19T12:34:51;100063.78;;;9.93;66.04
80749;BME280;70145;53.746;9.970;2023-11-19T12:37:16;100060.66;;;9.98;65.44
80749;BME280;70145;53.746;9.970;2023-11-19T12:39:42;100056.13;;;9.98;65.64
80749;BME280;70145;53.746;9.970;2023-11-19T12:42:07;100064.47;;;9.95;65.62
80749;BME280;70145;53.746;9.970;2023-11-19T12:44:32;100053.84;;;9.93;65.64
80749;BME280;70145;53.746;9.970;2023-11-19T12:47:04;100050.03;;;9.96;65.43
80749;BME280;70145;53.746;9.970;2023-11-19T12:49:30;100055.97;;;10.00;65.43
80749;BME280;70145;53.746;9.970;2023-11-19T12:51:55;100064.91;;;10.00;65.54
80749;BME280;70145;53.746;9.970;2023-11-19T12:54:40;100046.09;;;10.00;65.53
80749;BME280;70145;53.746;9.970;2023-11-19T12:57:05;100050.47;;;10.01;65.29
80749;BME280;70145;53.746;9.970;2023-11-19T12:59:31;100048.22;;;10.06;65.24
80749;BME280;70145;53.746;9.970;2023-11-19T13:01:57;100045.81;;;10.03;65.43
80749;BME280;70145;53.746;9.970;2023-11-19T13:04:27;100047.19;;;10.07;65.46
80749;BME280;70145;53.746;9.970;2023-11-19T13:06:53;100040.69;;;10.10;65.30
80749;BME280;70145;53.746;9.970;2023-11-19T13:09:26;100046.91;;;10.10;65.27
80749;BME280;70145;53.746;9.970;2023-11-19T13:11:51;100042.09;;;10.04;64.98